Janet D — WDI4058 — position and weather

sailwx.info

Track history (hours):
 
Tides and Currents Weather Stations Pressure Air Temp Water Temp Dewpoint Dewpoint Depression Visibility Wind Speed Wind Dir Waves Ship Positions

Janet D

Owner: JCL MARINE LLC, Elizabeth, NJ. More information available from US FCC via Universal Licensing System and Coast Guard Vessel Documentation Center.

Last reported at 2017-Oct-18 22:31 UTC. Time now 2017-Oct-18 22:33 UTC.
Position N 40°47' W 073°60'.

Length 23 m; draft 4 m.

Type: Tug. MMSI: 367694720.

Date/timePositionNaut miles runAvg speedWind from/ knotsBaromVisibWave heightAir tempDewpointWater temp
2017-Oct-18 22:31N 40°47' W 073°60'3 6.5
2017-Oct-18 22:01N 40°44' W 074°01'3 6.3
2017-Oct-18 21:30N 40°41' W 074°02'1 3.0
2017-Oct-18 21:01N 40°41' W 074°04'0 0.9
2017-Oct-18 20:31N 40°41' W 074°04'3 5.3
2017-Oct-18 20:00N 40°39' W 074°06'2 4.0
2017-Oct-18 19:31N 40°39' W 074°09'2 3.7
2017-Oct-18 19:00N 40°39' W 074°12'0 0.2
2017-Oct-18 18:30N 40°38' W 074°12'0 0.0
2017-Oct-18 18:00N 40°38' W 074°12'0 0.0
2017-Oct-18 17:30N 40°38' W 074°12'0 0.0
2017-Oct-18 17:00N 40°38' W 074°12'0 0.0
2017-Oct-18 16:30N 40°38' W 074°12'0 0.0
2017-Oct-18 16:01N 40°38' W 074°12'0 0.0
2017-Oct-18 15:31N 40°38' W 074°12'0 0.0
2017-Oct-18 15:00N 40°38' W 074°12'0 0.0
2017-Oct-18 14:00N 40°38' W 074°12'0 0.1
2017-Oct-18 13:29N 40°39' W 074°12'0 0.0
2017-Oct-18 13:00N 40°39' W 074°12'0 0.0
2017-Oct-18 12:31N 40°39' W 074°12'0 0.0
2017-Oct-18 12:00N 40°39' W 074°12'0 0.0
2017-Oct-18 11:30N 40°39' W 074°12'0 0.0
2017-Oct-18 11:00N 40°39' W 074°12'0 0.0
2017-Oct-18 10:30N 40°39' W 074°12'0 0.0
2017-Oct-18 10:00N 40°39' W 074°12'0 0.0
2017-Oct-18 09:30N 40°39' W 074°12'0 0.0
2017-Oct-18 09:00N 40°39' W 074°12'0 0.0
2017-Oct-18 08:30N 40°39' W 074°12'0 0.0
2017-Oct-18 08:00N 40°39' W 074°12'0 0.0
2017-Oct-18 07:31N 40°39' W 074°12'0 0.0
2017-Oct-18 07:00N 40°39' W 074°12'0 0.0
2017-Oct-18 06:30N 40°39' W 074°12'0 0.0
2017-Oct-18 06:00N 40°39' W 074°12'0 0.0
2017-Oct-18 05:30N 40°39' W 074°12'0 0.0
2017-Oct-18 05:00N 40°39' W 074°12'0 0.0
2017-Oct-18 04:31N 40°39' W 074°12'0 0.0
2017-Oct-18 04:00N 40°39' W 074°12'0 0.0
2017-Oct-18 03:30N 40°39' W 074°12'0 0.0
2017-Oct-18 03:00N 40°39' W 074°12'0 0.0
2017-Oct-18 02:31N 40°39' W 074°12'0 0.0
2017-Oct-18 02:01N 40°39' W 074°12'0 0.0
2017-Oct-18 01:30N 40°39' W 074°12'0 0.0
2017-Oct-18 01:00N 40°39' W 074°12'0 0.0
2017-Oct-18 00:30N 40°39' W 074°12'0 0.0
2017-Oct-18 00:00N 40°39' W 074°12'0 0.0
2017-Oct-17 23:30N 40°39' W 074°12'0 0.0
2017-Oct-17 23:00N 40°39' W 074°12'0 0.0
2017-Oct-17 22:31N 40°39' W 074°12'0 0.0
2017-Oct-17 22:00N 40°39' W 074°12'0 0.0
2017-Oct-17 21:30N 40°39' W 074°12'0 0.0
2017-Oct-17 21:00N 40°39' W 074°12'0 0.0
2017-Oct-17 20:31N 40°39' W 074°12'0 0.0
2017-Oct-17 20:01N 40°39' W 074°12'0 0.0
2017-Oct-17 19:30N 40°39' W 074°12'0 0.0
2017-Oct-17 19:00N 40°39' W 074°12'0 0.1
2017-Oct-17 18:30N 40°38' W 074°12'0 0.0
2017-Oct-17 18:00N 40°38' W 074°12'0 0.2
2017-Oct-17 17:31N 40°38' W 074°12'0 0.2
2017-Oct-17 17:01N 40°38' W 074°12'0 0.0
2017-Oct-17 16:30N 40°38' W 074°12'0 0.0
2017-Oct-17 16:00N 40°38' W 074°12'0 0.8
2017-Oct-17 15:30N 40°39' W 074°11'0 0.8
2017-Oct-17 15:00N 40°39' W 074°12'0 0.0
2017-Oct-17 14:30N 40°39' W 074°12'0 0.0
2017-Oct-17 14:01N 40°39' W 074°12'0 0.0
2017-Oct-17 13:31N 40°39' W 074°12'0 0.0
2017-Oct-17 13:00N 40°39' W 074°12'0 0.0
2017-Oct-17 12:30N 40°39' W 074°12'0 0.0
2017-Oct-17 12:00N 40°39' W 074°12'0 0.0
2017-Oct-17 11:30N 40°39' W 074°12'0 0.0
2017-Oct-17 11:00N 40°39' W 074°12'0 0.0
2017-Oct-17 10:30N 40°39' W 074°12'0 0.0
2017-Oct-17 10:01N 40°39' W 074°12'0 0.0
2017-Oct-17 09:30N 40°39' W 074°12'0 0.0
2017-Oct-17 09:00N 40°39' W 074°12'0 0.0
2017-Oct-17 08:30N 40°39' W 074°12'0 0.0
2017-Oct-17 08:00N 40°39' W 074°12'0 0.0
2017-Oct-17 07:30N 40°39' W 074°12'0 0.0
2017-Oct-17 06:59N 40°39' W 074°12'0 0.0
2017-Oct-17 06:30N 40°39' W 074°12'0 0.0
2017-Oct-17 06:00N 40°39' W 074°12'0 0.0
2017-Oct-17 05:30N 40°39' W 074°12'0 0.0
2017-Oct-17 05:00N 40°39' W 074°12'0 0.0
2017-Oct-17 04:30N 40°39' W 074°12'0 0.0
2017-Oct-17 04:00N 40°39' W 074°12'0 0.0
2017-Oct-17 03:30N 40°39' W 074°12'0 0.0
2017-Oct-17 03:00N 40°39' W 074°12'0 0.0
2017-Oct-17 02:30N 40°39' W 074°12'0 0.0
2017-Oct-17 02:00N 40°39' W 074°12'0 0.0
2017-Oct-17 01:30N 40°39' W 074°12'0 0.0
2017-Oct-17 01:00N 40°39' W 074°12'0 0.0
2017-Oct-17 00:31N 40°39' W 074°12'0 0.0
2017-Oct-17 00:00N 40°39' W 074°12'0 0.0
2017-Oct-16 23:30N 40°39' W 074°12'0 0.0
2017-Oct-16 23:00N 40°39' W 074°12'0 0.0
2017-Oct-16 22:31N 40°39' W 074°12'0 0.0
2017-Oct-16 22:00N 40°39' W 074°12'0 0.0
2017-Oct-16 21:30N 40°39' W 074°12'0 0.0
2017-Oct-16 21:01N 40°39' W 074°12'0 0.0
2017-Oct-16 20:30N 40°39' W 074°12'0 0.0
2017-Oct-16 20:00N 40°39' W 074°12'0 0.0
2017-Oct-16 19:30N 40°39' W 074°12'0 0.0
2017-Oct-16 19:01N 40°39' W 074°12'0 0.0
2017-Oct-16 18:30N 40°39' W 074°12'0 0.0
2017-Oct-16 18:00N 40°39' W 074°12'0 0.0
2017-Oct-16 17:30N 40°39' W 074°12'0 0.0
2017-Oct-16 17:00N 40°39' W 074°12'0 0.0
2017-Oct-16 16:30N 40°39' W 074°12'0 0.0
2017-Oct-16 16:00N 40°39' W 074°12'0 0.0
2017-Oct-16 15:30N 40°38' W 074°12'0 0.0
2017-Oct-16 15:00N 40°38' W 074°12'0 0.0
2017-Oct-16 14:30N 40°38' W 074°12'0 0.0
2017-Oct-16 13:31N 40°38' W 074°12'0 0.0
2017-Oct-16 13:00N 40°39' W 074°12'3 5.2
2017-Oct-16 12:30N 40°40' W 074°09'0 0.7
2017-Oct-16 12:01N 40°39' W 074°09'1 1.9
2017-Oct-16 11:31N 40°39' W 074°08'4 7.3
2017-Oct-16 11:01N 40°40' W 074°04'1 1.6
2017-Oct-16 10:30N 40°41' W 074°04'2 4.3
2017-Oct-16 10:01N 40°39' W 074°05'3 6.2
2017-Oct-16 09:30N 40°38' W 074°09'2 3.4
2017-Oct-16 09:01N 40°38' W 074°12'0 0.1
2017-Oct-16 08:30N 40°39' W 074°12'0 0.0
2017-Oct-16 08:00N 40°39' W 074°12'0 0.0
2017-Oct-16 07:30N 40°39' W 074°12'0 0.0
2017-Oct-16 07:00N 40°39' W 074°12'0 0.0
2017-Oct-16 06:30N 40°39' W 074°12'0 0.0
2017-Oct-16 06:01N 40°39' W 074°12'0 0.0
2017-Oct-16 05:30N 40°39' W 074°12'0 0.0
2017-Oct-16 05:00N 40°39' W 074°12'0 0.0
2017-Oct-16 04:30N 40°39' W 074°12'0 0.0
2017-Oct-16 04:00N 40°39' W 074°12'0 0.0
2017-Oct-16 03:30N 40°39' W 074°12'0 0.0
2017-Oct-16 03:00N 40°39' W 074°12'0 0.0
2017-Oct-16 02:30N 40°39' W 074°12'0 0.0
2017-Oct-16 02:00N 40°39' W 074°12'0 0.0
2017-Oct-16 01:30N 40°39' W 074°12'0 0.0
2017-Oct-16 01:00N 40°39' W 074°12'0 0.0
2017-Oct-16 00:30N 40°39' W 074°12'0 0.0
2017-Oct-16 00:00N 40°39' W 074°12'0 0.0
2017-Oct-15 23:30N 40°39' W 074°12'0 0.0
2017-Oct-15 23:00N 40°39' W 074°12'0 0.0
2017-Oct-15 22:30N 40°39' W 074°12'0 0.0
2017-Oct-15 22:00N 40°39' W 074°12'0 0.0
2017-Oct-15 21:30N 40°39' W 074°12'0 0.0
2017-Oct-15 21:01N 40°39' W 074°12'0 0.0
2017-Oct-15 20:30N 40°39' W 074°12'0 0.0
2017-Oct-15 20:00N 40°39' W 074°12'0 0.0
2017-Oct-15 19:30N 40°39' W 074°12'0 0.0
2017-Oct-15 19:01N 40°39' W 074°12'0 0.0
2017-Oct-15 18:31N 40°39' W 074°12'0 0.0
2017-Oct-15 18:00N 40°39' W 074°12'0 0.0
2017-Oct-15 17:01N 40°39' W 074°12'0 0.0
2017-Oct-15 16:31N 40°39' W 074°12'0 0.0
2017-Oct-15 16:01N 40°39' W 074°12'0 0.0
2017-Oct-15 15:31N 40°39' W 074°12'0 0.0
2017-Oct-15 15:01N 40°39' W 074°12'0 0.0
2017-Oct-15 14:00N 40°39' W 074°12'0 0.0
2017-Oct-15 13:30N 40°39' W 074°12'0 0.0
2017-Oct-15 13:01N 40°39' W 074°12'0 0.0
2017-Oct-15 12:31N 40°39' W 074°12'0 0.0
2017-Oct-15 12:01N 40°39' W 074°12'0 0.0
2017-Oct-15 11:31N 40°39' W 074°12'0 0.0
2017-Oct-15 11:01N 40°39' W 074°12'0 0.0
2017-Oct-15 10:31N 40°39' W 074°12'0 0.0
2017-Oct-15 10:01N 40°39' W 074°12'0 0.0
2017-Oct-15 09:30N 40°39' W 074°12'0 0.0
2017-Oct-15 09:00N 40°39' W 074°12'0 0.0
2017-Oct-15 08:30N 40°39' W 074°12'0 0.0
2017-Oct-15 08:01N 40°39' W 074°12'0 0.0
2017-Oct-15 07:31N 40°39' W 074°12'0 0.0
2017-Oct-15 07:00N 40°39' W 074°12'0 0.0
2017-Oct-15 06:30N 40°39' W 074°12'0 0.0
2017-Oct-15 06:01N 40°39' W 074°12'0 0.0
2017-Oct-15 05:31N 40°39' W 074°12'0 0.0
2017-Oct-15 05:00N 40°39' W 074°12'0 0.0
2017-Oct-15 04:31N 40°39' W 074°12'0 0.0
2017-Oct-15 04:00N 40°39' W 074°12'0 0.0
2017-Oct-15 03:30N 40°39' W 074°12'0 0.0
2017-Oct-15 03:00N 40°39' W 074°12'0 0.0
2017-Oct-15 02:30N 40°39' W 074°12'0 0.0
2017-Oct-15 02:01N 40°39' W 074°12'0 0.0
2017-Oct-15 01:31N 40°39' W 074°12'0 0.0
2017-Oct-15 01:00N 40°39' W 074°12'0 0.0
2017-Oct-15 00:30N 40°39' W 074°12'0 0.0
2017-Oct-15 00:01N 40°39' W 074°12'0 0.0
2017-Oct-14 23:30N 40°39' W 074°12'0 0.0
2017-Oct-14 23:01N 40°39' W 074°12'0 0.0
2017-Oct-14 22:31N 40°39' W 074°12'0 0.0
2017-Oct-14 22:01N 40°39' W 074°12'0 0.0
2017-Oct-14 21:30N 40°39' W 074°12'0 0.0
2017-Oct-14 21:00N 40°39' W 074°12'0 0.0
2017-Oct-14 20:31N 40°39' W 074°12'0 0.0
2017-Oct-14 20:00N 40°39' W 074°12'0 0.0
2017-Oct-14 19:31N 40°39' W 074°12'0 0.0
2017-Oct-14 19:00N 40°39' W 074°12'0 0.0
2017-Oct-14 18:30N 40°39' W 074°12'0 0.0
2017-Oct-14 18:00N 40°39' W 074°12'0 0.0
2017-Oct-14 17:30N 40°39' W 074°12'0 0.0
2017-Oct-14 17:00N 40°39' W 074°12'0 0.0
2017-Oct-14 16:30N 40°39' W 074°12'0 0.0
2017-Oct-14 16:01N 40°39' W 074°12'0 0.0
2017-Oct-14 15:30N 40°39' W 074°12'0 0.0
2017-Oct-14 15:00N 40°39' W 074°12'0 0.0
2017-Oct-14 14:30N 40°39' W 074°12'0 0.0
2017-Oct-14 14:00N 40°39' W 074°12'0 0.0
2017-Oct-14 13:30N 40°39' W 074°12'0 0.0
2017-Oct-14 12:59N 40°39' W 074°12'0 0.0
2017-Oct-14 12:30N 40°39' W 074°12'0 0.0
2017-Oct-14 12:00N 40°39' W 074°12'0 0.0
2017-Oct-14 11:30N 40°39' W 074°12'0 0.0
2017-Oct-14 11:00N 40°39' W 074°12'0 0.0
2017-Oct-14 10:30N 40°39' W 074°12'0 0.0
2017-Oct-14 10:00N 40°39' W 074°12'0 0.0
2017-Oct-14 09:30N 40°39' W 074°12'0 0.0
2017-Oct-14 09:00N 40°39' W 074°12'0 0.0
2017-Oct-14 08:30N 40°39' W 074°12'0 0.0
2017-Oct-14 08:00N 40°39' W 074°12'0 0.0
2017-Oct-14 07:30N 40°39' W 074°12'0 0.0
2017-Oct-14 07:00N 40°39' W 074°12'0 0.0
2017-Oct-14 06:30N 40°39' W 074°12'0 0.0
2017-Oct-14 06:00N 40°39' W 074°12'0 0.0
2017-Oct-14 05:30N 40°39' W 074°12'0 0.0
2017-Oct-14 05:00N 40°39' W 074°12'0 0.0
2017-Oct-14 04:29N 40°39' W 074°12'0 0.0
2017-Oct-14 04:00N 40°39' W 074°12'0 0.0
2017-Oct-14 03:30N 40°39' W 074°12'0 0.0
2017-Oct-14 03:00N 40°39' W 074°12'0 0.0
2017-Oct-14 02:30N 40°39' W 074°12'0 0.0
2017-Oct-14 02:00N 40°39' W 074°12'0 0.0
2017-Oct-14 01:30N 40°39' W 074°12'0 0.0
2017-Oct-14 01:00N 40°39' W 074°12'0 0.0
2017-Oct-14 00:30N 40°39' W 074°12'0 0.0
2017-Oct-14 00:00N 40°39' W 074°12'0 0.0
2017-Oct-13 23:30N 40°39' W 074°12'0 0.0
2017-Oct-13 23:00N 40°39' W 074°12'0 0.0
2017-Oct-13 22:30N 40°39' W 074°12'0 0.0
2017-Oct-13 22:00N 40°39' W 074°12'0 0.0
2017-Oct-13 21:30N 40°39' W 074°12'0 0.0
2017-Oct-13 21:00N 40°39' W 074°12'0 0.0
2017-Oct-13 20:29N 40°39' W 074°12'0 0.0
2017-Oct-13 20:00N 40°39' W 074°12'0 0.0
2017-Oct-13 19:30N 40°39' W 074°12'0 0.2
2017-Oct-13 19:00N 40°38' W 074°12'0 0.1
2017-Oct-13 18:30N 40°38' W 074°12'0 0.1
2017-Oct-13 17:59N 40°38' W 074°12'0 0.0
2017-Oct-13 17:30N 40°38' W 074°12'0 0.0
2017-Oct-13 17:00N 40°38' W 074°12'0 0.0
2017-Oct-13 16:30N 40°38' W 074°12'0 0.0
2017-Oct-13 16:00N 40°38' W 074°12'0 0.0
2017-Oct-13 15:29N 40°38' W 074°12'0 0.0
2017-Oct-13 15:00N 40°38' W 074°12'0 0.0
2017-Oct-13 14:30N 40°38' W 074°12'0 0.0
2017-Oct-13 14:00N 40°38' W 074°12'0 0.0
2017-Oct-13 13:30N 40°38' W 074°12'0 0.0
2017-Oct-13 13:00N 40°38' W 074°12'0 0.0
2017-Oct-13 12:30N 40°38' W 074°12'0 0.0
2017-Oct-13 12:00N 40°39' W 074°12'0 0.0
2017-Oct-13 11:30N 40°38' W 074°12'0 0.0
2017-Oct-13 10:30N 40°39' W 074°12'0 0.0
2017-Oct-13 10:00N 40°39' W 074°12'0 0.0
2017-Oct-13 09:30N 40°39' W 074°12'0 0.0
2017-Oct-13 09:00N 40°39' W 074°12'0 0.0
2017-Oct-13 08:30N 40°39' W 074°12'0 0.0
2017-Oct-13 08:00N 40°39' W 074°12'0 0.0
2017-Oct-13 07:30N 40°39' W 074°12'0 0.0
2017-Oct-13 07:00N 40°39' W 074°12'0 0.0
2017-Oct-13 06:30N 40°39' W 074°12'0 0.0
2017-Oct-13 06:00N 40°39' W 074°12'0 0.0
2017-Oct-13 05:30N 40°39' W 074°12'0 0.0
2017-Oct-13 05:00N 40°39' W 074°12'0 0.0
2017-Oct-13 04:30N 40°39' W 074°12'0 0.0
2017-Oct-13 04:00N 40°39' W 074°12'0 0.0
2017-Oct-13 03:30N 40°39' W 074°12'0 0.0
2017-Oct-13 03:00N 40°39' W 074°12'0 0.0
2017-Oct-13 02:30N 40°39' W 074°12'0 0.0
2017-Oct-13 02:00N 40°39' W 074°12'0 0.0
2017-Oct-13 01:30N 40°39' W 074°12'0 0.0
2017-Oct-13 01:00N 40°39' W 074°12'0 0.0
2017-Oct-13 00:30N 40°39' W 074°12'0 0.0
2017-Oct-13 00:00N 40°39' W 074°12'0 0.0
2017-Oct-12 23:30N 40°39' W 074°12'0 0.0
2017-Oct-12 23:00N 40°39' W 074°12'0 0.0
2017-Oct-12 22:30N 40°39' W 074°12'0 0.0
2017-Oct-12 22:00N 40°39' W 074°12'0 0.0
2017-Oct-12 21:30N 40°39' W 074°12'0 0.0
2017-Oct-12 21:00N 40°39' W 074°12'0 0.0
2017-Oct-12 20:30N 40°39' W 074°12'0 0.0
2017-Oct-12 20:00N 40°39' W 074°12'0 0.0
2017-Oct-12 19:30N 40°39' W 074°12'0 0.0
2017-Oct-12 18:59N 40°39' W 074°12'0 0.0
2017-Oct-12 18:30N 40°39' W 074°12'0 0.0
2017-Oct-12 18:00N 40°39' W 074°12'0 0.0
2017-Oct-12 17:30N 40°39' W 074°12'0 0.0
2017-Oct-12 17:00N 40°39' W 074°12'0 0.0
2017-Oct-12 16:30N 40°39' W 074°12'0 0.1
2017-Oct-12 16:00N 40°38' W 074°12'0 0.1
2017-Oct-12 15:30N 40°39' W 074°12'0 0.0
2017-Oct-12 14:59N 40°39' W 074°12'0 0.0
2017-Oct-12 14:30N 40°39' W 074°12'0 0.0
2017-Oct-12 14:00N 40°39' W 074°12'0 0.0
2017-Oct-12 13:30N 40°39' W 074°12'0 0.0
2017-Oct-12 13:00N 40°39' W 074°12'0 0.0
2017-Oct-12 12:30N 40°39' W 074°12'0 0.0
2017-Oct-12 12:00N 40°39' W 074°12'0 0.0
2017-Oct-12 11:30N 40°39' W 074°12'0 0.0
2017-Oct-12 11:00N 40°39' W 074°12'0 0.0
2017-Oct-12 10:30N 40°39' W 074°12'0 0.0
2017-Oct-12 10:00N 40°39' W 074°12'0 0.0
2017-Oct-12 09:30N 40°39' W 074°12'0 0.0
2017-Oct-12 09:00N 40°39' W 074°12'0 0.0
2017-Oct-12 08:30N 40°39' W 074°12'0 0.0
2017-Oct-12 08:00N 40°39' W 074°12'0 0.0
2017-Oct-12 07:30N 40°39' W 074°12'0 0.0
2017-Oct-12 07:00N 40°39' W 074°12'0 0.0
2017-Oct-12 06:30N 40°39' W 074°12'0 0.0
2017-Oct-12 06:00N 40°39' W 074°12'0 0.0
2017-Oct-12 05:30N 40°39' W 074°12'0 0.0
2017-Oct-12 05:00N 40°39' W 074°12'0 0.0
2017-Oct-12 04:30N 40°39' W 074°12'0 0.0
2017-Oct-12 04:00N 40°39' W 074°12'0 0.0
2017-Oct-12 03:30N 40°39' W 074°12'0 0.0
2017-Oct-12 03:00N 40°39' W 074°12'0 0.0
2017-Oct-12 02:30N 40°39' W 074°12'0 0.0
2017-Oct-12 02:00N 40°39' W 074°12'0 0.0
2017-Oct-12 01:30N 40°39' W 074°12'0 0.0
2017-Oct-12 01:00N 40°39' W 074°12'0 0.0
2017-Oct-12 00:30N 40°39' W 074°12'0 0.0
2017-Oct-12 00:00N 40°39' W 074°12'0 0.0
2017-Oct-11 23:30N 40°39' W 074°12'0 0.0
2017-Oct-11 23:00N 40°39' W 074°12'0 0.0
2017-Oct-11 22:29N 40°39' W 074°12'0 0.0
2017-Oct-11 22:00N 40°39' W 074°12'0 0.0
2017-Oct-11 21:30N 40°39' W 074°12'0 0.0
2017-Oct-11 20:59N 40°39' W 074°12'0 0.0
2017-Oct-11 20:30N 40°39' W 074°12'0 0.0
2017-Oct-11 20:00N 40°39' W 074°12'0 0.0
2017-Oct-11 19:30N 40°39' W 074°12'0 0.0
2017-Oct-11 19:00N 40°39' W 074°12'0 0.0
2017-Oct-11 18:30N 40°39' W 074°12'0 0.0
2017-Oct-11 18:00N 40°39' W 074°12'0 0.0
2017-Oct-11 17:30N 40°39' W 074°12'0 0.0
2017-Oct-11 17:00N 40°39' W 074°12'0 0.0
2017-Oct-11 00:00N 40°39' W 074°12'0 0.0
2017-Oct-10 23:29N 40°39' W 074°12'0 0.0
2017-Oct-10 23:00N 40°39' W 074°12'0 0.0
2017-Oct-10 22:23N 40°39' W 074°12'0 0.0
2017-Oct-10 22:00N 40°39' W 074°12'0 0.0
2017-Oct-10 21:30N 40°39' W 074°12'0 0.0
2017-Oct-10 21:00N 40°39' W 074°12'0 0.0
2017-Oct-10 20:28N 40°39' W 074°12'0 0.0
2017-Oct-10 20:00N 40°39' W 074°12'0 0.0
2017-Oct-10 19:30N 40°39' W 074°12'0 0.0
2017-Oct-10 19:00N 40°39' W 074°12'0 0.0
2017-Oct-10 18:30N 40°39' W 074°12'0 0.0
2017-Oct-10 18:00N 40°39' W 074°12'0 0.0
2017-Oct-10 17:30N 40°39' W 074°12'0 0.0
2017-Oct-10 17:00N 40°39' W 074°12'0 0.0
2017-Oct-10 16:30N 40°39' W 074°12'0 0.0
2017-Oct-10 16:00N 40°39' W 074°12'0 0.0
2017-Oct-10 15:30N 40°39' W 074°12'0 0.0
2017-Oct-10 15:00N 40°39' W 074°12'0 0.0
2017-Oct-10 14:00N 40°39' W 074°12'0 0.0
2017-Oct-10 13:30N 40°39' W 074°12'0 0.0
2017-Oct-10 13:00N 40°39' W 074°12'0 0.0
2017-Oct-10 12:30N 40°39' W 074°12'0 0.0
2017-Oct-10 12:00N 40°39' W 074°12'0 0.0
2017-Oct-10 11:30N 40°39' W 074°12'0 0.0
2017-Oct-10 11:00N 40°39' W 074°12'0 0.0
2017-Oct-10 10:30N 40°39' W 074°12'0 0.0
2017-Oct-10 10:00N 40°39' W 074°12'0 0.0
2017-Oct-10 09:30N 40°39' W 074°12'0 0.0
2017-Oct-10 09:00N 40°39' W 074°12'0 0.0
2017-Oct-10 08:30N 40°39' W 074°12'0 0.0
2017-Oct-10 08:00N 40°39' W 074°12'0 0.0
2017-Oct-10 07:29N 40°39' W 074°12'0 0.0
2017-Oct-10 07:00N 40°39' W 074°12'0 0.0
2017-Oct-10 06:30N 40°39' W 074°12'0 0.0
2017-Oct-10 06:00N 40°39' W 074°12'0 0.0
2017-Oct-10 05:30N 40°39' W 074°12'0 0.0
2017-Oct-10 05:00N 40°39' W 074°12'0 0.0
2017-Oct-10 04:30N 40°39' W 074°12'0 0.0
2017-Oct-10 04:00N 40°39' W 074°12'0 0.0
2017-Oct-10 03:30N 40°39' W 074°12'0 0.0
2017-Oct-10 03:00N 40°39' W 074°12'0 0.0
2017-Oct-10 02:30N 40°39' W 074°12'0 0.0
2017-Oct-10 02:00N 40°39' W 074°12'0 0.0
2017-Oct-10 01:29N 40°39' W 074°12'0 0.0
2017-Oct-10 01:00N 40°39' W 074°12'0 0.0
2017-Oct-10 00:30N 40°39' W 074°12'0 0.0
2017-Oct-09 23:59N 40°39' W 074°12'0 0.0
2017-Oct-09 22:47N 40°39' W 074°12'0 0.0
2017-Oct-09 22:26N 40°39' W 074°12'0 0.0
2017-Oct-09 22:00N 40°39' W 074°12'0 0.0
2017-Oct-09 21:30N 40°39' W 074°12'0 0.0
2017-Oct-09 21:00N 40°39' W 074°12'0 0.0
2017-Oct-09 20:30N 40°39' W 074°12'0 0.0
2017-Oct-09 20:00N 40°39' W 074°12'0 0.0
2017-Oct-09 19:30N 40°39' W 074°12'0 0.0
2017-Oct-09 19:00N 40°39' W 074°12'0 0.0
2017-Oct-09 18:30N 40°39' W 074°12'0 0.0
2017-Oct-09 18:00N 40°39' W 074°12'0 0.0
2017-Oct-09 17:30N 40°39' W 074°12'0 0.0
2017-Oct-09 17:00N 40°39' W 074°12'0 0.0
2017-Oct-09 16:30N 40°39' W 074°12'0 0.0
2017-Oct-09 16:00N 40°39' W 074°12'0 0.0
2017-Oct-09 15:30N 40°39' W 074°12'0 0.0
2017-Oct-09 15:00N 40°39' W 074°12'0 0.0
2017-Oct-09 14:30N 40°39' W 074°12'0 0.0
2017-Oct-09 14:00N 40°39' W 074°12'0 0.0
2017-Oct-09 13:30N 40°39' W 074°12'0 0.0
2017-Oct-09 13:00N 40°39' W 074°12'0 0.0
2017-Oct-09 12:30N 40°39' W 074°12'0 0.0
2017-Oct-09 12:00N 40°39' W 074°12'0 0.0
2017-Oct-09 11:30N 40°39' W 074°12'0 0.0
2017-Oct-09 10:59N 40°39' W 074°12'0 0.0
2017-Oct-09 10:30N 40°39' W 074°12'0 0.0
2017-Oct-09 10:00N 40°39' W 074°12'0 0.0
2017-Oct-09 09:30N 40°39' W 074°12'0 0.0
2017-Oct-09 09:00N 40°39' W 074°12'0 0.0
2017-Oct-09 08:30N 40°39' W 074°12'0 0.0
2017-Oct-09 08:00N 40°39' W 074°12'0 0.0
2017-Oct-09 07:30N 40°39' W 074°12'0 0.0
2017-Oct-09 07:00N 40°39' W 074°12'0 0.0
2017-Oct-09 06:30N 40°39' W 074°12'0 0.0
2017-Oct-09 06:00N 40°39' W 074°12'0 0.0
2017-Oct-09 05:30N 40°39' W 074°12'0 0.0
2017-Oct-09 05:00N 40°39' W 074°12'0 0.0
2017-Oct-09 04:30N 40°39' W 074°12'0 0.0
2017-Oct-09 04:00N 40°39' W 074°12'0 0.0
2017-Oct-09 03:30N 40°39' W 074°12'0 0.0
2017-Oct-09 03:00N 40°39' W 074°12'0 0.0
2017-Oct-09 02:30N 40°39' W 074°12'0 0.0
2017-Oct-09 02:00N 40°39' W 074°12'0 0.0
2017-Oct-09 01:30N 40°39' W 074°12'0 0.0
2017-Oct-09 01:00N 40°39' W 074°12'0 0.0
2017-Oct-09 00:30N 40°39' W 074°12'0 0.0
2017-Oct-09 00:00N 40°39' W 074°12'0 0.0
2017-Oct-08 23:30N 40°39' W 074°12'0 0.0
2017-Oct-08 23:00N 40°39' W 074°12'  
Track history (hours):
 
Tides and Currents Weather Stations Pressure Air Temp Water Temp Dewpoint Dewpoint Depression Visibility Wind Speed Wind Dir Waves Ship Positions

Janet D

Owner: JCL MARINE LLC, Elizabeth, NJ. More information available from US FCC via Universal Licensing System and Coast Guard Vessel Documentation Center.

Last reported at 2017-Oct-18 22:31 UTC. Time now 2017-Oct-18 22:33 UTC.
Position N 40°47' W 073°60'.

Length 23 m; draft 4 m.

Type: Tug. MMSI: 367694720.

Date/timePositionNaut miles runAvg speedWind from/ knotsBaromVisibWave heightAir tempDewpointWater temp
2017-Oct-18 22:31N 40°47' W 073°60'3 6.5
2017-Oct-18 22:01N 40°44' W 074°01'3 6.3
2017-Oct-18 21:30N 40°41' W 074°02'1 3.0
2017-Oct-18 21:01N 40°41' W 074°04'0 0.9
2017-Oct-18 20:31N 40°41' W 074°04'3 5.3
2017-Oct-18 20:00N 40°39' W 074°06'2 4.0
2017-Oct-18 19:31N 40°39' W 074°09'2 3.7
2017-Oct-18 19:00N 40°39' W 074°12'0 0.2
2017-Oct-18 18:30N 40°38' W 074°12'0 0.0
2017-Oct-18 18:00N 40°38' W 074°12'0 0.0
2017-Oct-18 17:30N 40°38' W 074°12'0 0.0
2017-Oct-18 17:00N 40°38' W 074°12'0 0.0
2017-Oct-18 16:30N 40°38' W 074°12'0 0.0
2017-Oct-18 16:01N 40°38' W 074°12'0 0.0
2017-Oct-18 15:31N 40°38' W 074°12'0 0.0
2017-Oct-18 15:00N 40°38' W 074°12'0 0.0
2017-Oct-18 14:00N 40°38' W 074°12'0 0.1
2017-Oct-18 13:29N 40°39' W 074°12'0 0.0
2017-Oct-18 13:00N 40°39' W 074°12'0 0.0
2017-Oct-18 12:31N 40°39' W 074°12'0 0.0
2017-Oct-18 12:00N 40°39' W 074°12'0 0.0
2017-Oct-18 11:30N 40°39' W 074°12'0 0.0
2017-Oct-18 11:00N 40°39' W 074°12'0 0.0
2017-Oct-18 10:30N 40°39' W 074°12'0 0.0
2017-Oct-18 10:00N 40°39' W 074°12'0 0.0
2017-Oct-18 09:30N 40°39' W 074°12'0 0.0
2017-Oct-18 09:00N 40°39' W 074°12'0 0.0
2017-Oct-18 08:30N 40°39' W 074°12'0 0.0
2017-Oct-18 08:00N 40°39' W 074°12'0 0.0
2017-Oct-18 07:31N 40°39' W 074°12'0 0.0
2017-Oct-18 07:00N 40°39' W 074°12'0 0.0
2017-Oct-18 06:30N 40°39' W 074°12'0 0.0
2017-Oct-18 06:00N 40°39' W 074°12'0 0.0
2017-Oct-18 05:30N 40°39' W 074°12'0 0.0
2017-Oct-18 05:00N 40°39' W 074°12'0 0.0
2017-Oct-18 04:31N 40°39' W 074°12'0 0.0
2017-Oct-18 04:00N 40°39' W 074°12'0 0.0
2017-Oct-18 03:30N 40°39' W 074°12'0 0.0
2017-Oct-18 03:00N 40°39' W 074°12'0 0.0
2017-Oct-18 02:31N 40°39' W 074°12'0 0.0
2017-Oct-18 02:01N 40°39' W 074°12'0 0.0
2017-Oct-18 01:30N 40°39' W 074°12'0 0.0
2017-Oct-18 01:00N 40°39' W 074°12'0 0.0
2017-Oct-18 00:30N 40°39' W 074°12'0 0.0
2017-Oct-18 00:00N 40°39' W 074°12'0 0.0
2017-Oct-17 23:30N 40°39' W 074°12'0 0.0
2017-Oct-17 23:00N 40°39' W 074°12'0 0.0
2017-Oct-17 22:31N 40°39' W 074°12'0 0.0
2017-Oct-17 22:00N 40°39' W 074°12'0 0.0
2017-Oct-17 21:30N 40°39' W 074°12'0 0.0
2017-Oct-17 21:00N 40°39' W 074°12'0 0.0
2017-Oct-17 20:31N 40°39' W 074°12'0 0.0
2017-Oct-17 20:01N 40°39' W 074°12'0 0.0
2017-Oct-17 19:30N 40°39' W 074°12'0 0.0
2017-Oct-17 19:00N 40°39' W 074°12'0 0.1
2017-Oct-17 18:30N 40°38' W 074°12'0 0.0
2017-Oct-17 18:00N 40°38' W 074°12'0 0.2
2017-Oct-17 17:31N 40°38' W 074°12'0 0.2
2017-Oct-17 17:01N 40°38' W 074°12'0 0.0
2017-Oct-17 16:30N 40°38' W 074°12'0 0.0
2017-Oct-17 16:00N 40°38' W 074°12'0 0.8
2017-Oct-17 15:30N 40°39' W 074°11'0 0.8
2017-Oct-17 15:00N 40°39' W 074°12'0 0.0
2017-Oct-17 14:30N 40°39' W 074°12'0 0.0
2017-Oct-17 14:01N 40°39' W 074°12'0 0.0
2017-Oct-17 13:31N 40°39' W 074°12'0 0.0
2017-Oct-17 13:00N 40°39' W 074°12'0 0.0
2017-Oct-17 12:30N 40°39' W 074°12'0 0.0
2017-Oct-17 12:00N 40°39' W 074°12'0 0.0
2017-Oct-17 11:30N 40°39' W 074°12'0 0.0
2017-Oct-17 11:00N 40°39' W 074°12'0 0.0
2017-Oct-17 10:30N 40°39' W 074°12'0 0.0
2017-Oct-17 10:01N 40°39' W 074°12'0 0.0
2017-Oct-17 09:30N 40°39' W 074°12'0 0.0
2017-Oct-17 09:00N 40°39' W 074°12'0 0.0
2017-Oct-17 08:30N 40°39' W 074°12'0 0.0
2017-Oct-17 08:00N 40°39' W 074°12'0 0.0
2017-Oct-17 07:30N 40°39' W 074°12'0 0.0
2017-Oct-17 06:59N 40°39' W 074°12'0 0.0
2017-Oct-17 06:30N 40°39' W 074°12'0 0.0
2017-Oct-17 06:00N 40°39' W 074°12'0 0.0
2017-Oct-17 05:30N 40°39' W 074°12'0 0.0
2017-Oct-17 05:00N 40°39' W 074°12'0 0.0
2017-Oct-17 04:30N 40°39' W 074°12'0 0.0
2017-Oct-17 04:00N 40°39' W 074°12'0 0.0
2017-Oct-17 03:30N 40°39' W 074°12'0 0.0
2017-Oct-17 03:00N 40°39' W 074°12'0 0.0
2017-Oct-17 02:30N 40°39' W 074°12'0 0.0
2017-Oct-17 02:00N 40°39' W 074°12'0 0.0
2017-Oct-17 01:30N 40°39' W 074°12'0 0.0
2017-Oct-17 01:00N 40°39' W 074°12'0 0.0
2017-Oct-17 00:31N 40°39' W 074°12'0 0.0
2017-Oct-17 00:00N 40°39' W 074°12'0 0.0
2017-Oct-16 23:30N 40°39' W 074°12'0 0.0
2017-Oct-16 23:00N 40°39' W 074°12'0 0.0
2017-Oct-16 22:31N 40°39' W 074°12'0 0.0
2017-Oct-16 22:00N 40°39' W 074°12'0 0.0
2017-Oct-16 21:30N 40°39' W 074°12'0 0.0
2017-Oct-16 21:01N 40°39' W 074°12'0 0.0
2017-Oct-16 20:30N 40°39' W 074°12'0 0.0
2017-Oct-16 20:00N 40°39' W 074°12'0 0.0
2017-Oct-16 19:30N 40°39' W 074°12'0 0.0
2017-Oct-16 19:01N 40°39' W 074°12'0 0.0
2017-Oct-16 18:30N 40°39' W 074°12'0 0.0
2017-Oct-16 18:00N 40°39' W 074°12'0 0.0
2017-Oct-16 17:30N 40°39' W 074°12'0 0.0
2017-Oct-16 17:00N 40°39' W 074°12'0 0.0
2017-Oct-16 16:30N 40°39' W 074°12'0 0.0
2017-Oct-16 16:00N 40°39' W 074°12'0 0.0
2017-Oct-16 15:30N 40°38' W 074°12'0 0.0
2017-Oct-16 15:00N 40°38' W 074°12'0 0.0
2017-Oct-16 14:30N 40°38' W 074°12'0 0.0
2017-Oct-16 13:31N 40°38' W 074°12'0 0.0
2017-Oct-16 13:00N 40°39' W 074°12'3 5.2
2017-Oct-16 12:30N 40°40' W 074°09'0 0.7
2017-Oct-16 12:01N 40°39' W 074°09'1 1.9
2017-Oct-16 11:31N 40°39' W 074°08'4 7.3
2017-Oct-16 11:01N 40°40' W 074°04'1 1.6
2017-Oct-16 10:30N 40°41' W 074°04'2 4.3
2017-Oct-16 10:01N 40°39' W 074°05'3 6.2
2017-Oct-16 09:30N 40°38' W 074°09'2 3.4
2017-Oct-16 09:01N 40°38' W 074°12'0 0.1
2017-Oct-16 08:30N 40°39' W 074°12'0 0.0
2017-Oct-16 08:00N 40°39' W 074°12'0 0.0
2017-Oct-16 07:30N 40°39' W 074°12'0 0.0
2017-Oct-16 07:00N 40°39' W 074°12'0 0.0
2017-Oct-16 06:30N 40°39' W 074°12'0 0.0
2017-Oct-16 06:01N 40°39' W 074°12'0 0.0
2017-Oct-16 05:30N 40°39' W 074°12'0 0.0
2017-Oct-16 05:00N 40°39' W 074°12'0 0.0
2017-Oct-16 04:30N 40°39' W 074°12'0 0.0
2017-Oct-16 04:00N 40°39' W 074°12'0 0.0
2017-Oct-16 03:30N 40°39' W 074°12'0 0.0
2017-Oct-16 03:00N 40°39' W 074°12'0 0.0
2017-Oct-16 02:30N 40°39' W 074°12'0 0.0
2017-Oct-16 02:00N 40°39' W 074°12'0 0.0
2017-Oct-16 01:30N 40°39' W 074°12'0 0.0
2017-Oct-16 01:00N 40°39' W 074°12'0 0.0
2017-Oct-16 00:30N 40°39' W 074°12'0 0.0
2017-Oct-16 00:00N 40°39' W 074°12'0 0.0
2017-Oct-15 23:30N 40°39' W 074°12'0 0.0
2017-Oct-15 23:00N 40°39' W 074°12'0 0.0
2017-Oct-15 22:30N 40°39' W 074°12'0 0.0
2017-Oct-15 22:00N 40°39' W 074°12'0 0.0
2017-Oct-15 21:30N 40°39' W 074°12'0 0.0
2017-Oct-15 21:01N 40°39' W 074°12'0 0.0
2017-Oct-15 20:30N 40°39' W 074°12'0 0.0
2017-Oct-15 20:00N 40°39' W 074°12'0 0.0
2017-Oct-15 19:30N 40°39' W 074°12'0 0.0
2017-Oct-15 19:01N 40°39' W 074°12'0 0.0
2017-Oct-15 18:31N 40°39' W 074°12'0 0.0
2017-Oct-15 18:00N 40°39' W 074°12'0 0.0
2017-Oct-15 17:01N 40°39' W 074°12'0 0.0
2017-Oct-15 16:31N 40°39' W 074°12'0 0.0
2017-Oct-15 16:01N 40°39' W 074°12'0 0.0
2017-Oct-15 15:31N 40°39' W 074°12'0 0.0
2017-Oct-15 15:01N 40°39' W 074°12'0 0.0
2017-Oct-15 14:00N 40°39' W 074°12'0 0.0
2017-Oct-15 13:30N 40°39' W 074°12'0 0.0
2017-Oct-15 13:01N 40°39' W 074°12'0 0.0
2017-Oct-15 12:31N 40°39' W 074°12'0 0.0
2017-Oct-15 12:01N 40°39' W 074°12'0 0.0
2017-Oct-15 11:31N 40°39' W 074°12'0 0.0
2017-Oct-15 11:01N 40°39' W 074°12'0 0.0
2017-Oct-15 10:31N 40°39' W 074°12'0 0.0
2017-Oct-15 10:01N 40°39' W 074°12'0 0.0
2017-Oct-15 09:30N 40°39' W 074°12'0 0.0
2017-Oct-15 09:00N 40°39' W 074°12'0 0.0
2017-Oct-15 08:30N 40°39' W 074°12'0 0.0
2017-Oct-15 08:01N 40°39' W 074°12'0 0.0
2017-Oct-15 07:31N 40°39' W 074°12'0 0.0
2017-Oct-15 07:00N 40°39' W 074°12'0 0.0
2017-Oct-15 06:30N 40°39' W 074°12'0 0.0
2017-Oct-15 06:01N 40°39' W 074°12'0 0.0
2017-Oct-15 05:31N 40°39' W 074°12'0 0.0
2017-Oct-15 05:00N 40°39' W 074°12'0 0.0
2017-Oct-15 04:31N 40°39' W 074°12'0 0.0
2017-Oct-15 04:00N 40°39' W 074°12'0 0.0
2017-Oct-15 03:30N 40°39' W 074°12'0 0.0
2017-Oct-15 03:00N 40°39' W 074°12'0 0.0
2017-Oct-15 02:30N 40°39' W 074°12'0 0.0
2017-Oct-15 02:01N 40°39' W 074°12'0 0.0
2017-Oct-15 01:31N 40°39' W 074°12'0 0.0
2017-Oct-15 01:00N 40°39' W 074°12'0 0.0
2017-Oct-15 00:30N 40°39' W 074°12'0 0.0
2017-Oct-15 00:01N 40°39' W 074°12'0 0.0
2017-Oct-14 23:30N 40°39' W 074°12'0 0.0
2017-Oct-14 23:01N 40°39' W 074°12'0 0.0
2017-Oct-14 22:31N 40°39' W 074°12'0 0.0
2017-Oct-14 22:01N 40°39' W 074°12'0 0.0
2017-Oct-14 21:30N 40°39' W 074°12'0 0.0
2017-Oct-14 21:00N 40°39' W 074°12'0 0.0
2017-Oct-14 20:31N 40°39' W 074°12'0 0.0
2017-Oct-14 20:00N 40°39' W 074°12'0 0.0
2017-Oct-14 19:31N 40°39' W 074°12'0 0.0
2017-Oct-14 19:00N 40°39' W 074°12'0 0.0
2017-Oct-14 18:30N 40°39' W 074°12'0 0.0
2017-Oct-14 18:00N 40°39' W 074°12'0 0.0
2017-Oct-14 17:30N 40°39' W 074°12'0 0.0
2017-Oct-14 17:00N 40°39' W 074°12'0 0.0
2017-Oct-14 16:30N 40°39' W 074°12'0 0.0
2017-Oct-14 16:01N 40°39' W 074°12'0 0.0
2017-Oct-14 15:30N 40°39' W 074°12'0 0.0
2017-Oct-14 15:00N 40°39' W 074°12'0 0.0
2017-Oct-14 14:30N 40°39' W 074°12'0 0.0
2017-Oct-14 14:00N 40°39' W 074°12'0 0.0
2017-Oct-14 13:30N 40°39' W 074°12'0 0.0
2017-Oct-14 12:59N 40°39' W 074°12'0 0.0
2017-Oct-14 12:30N 40°39' W 074°12'0 0.0
2017-Oct-14 12:00N 40°39' W 074°12'0 0.0
2017-Oct-14 11:30N 40°39' W 074°12'0 0.0
2017-Oct-14 11:00N 40°39' W 074°12'0 0.0
2017-Oct-14 10:30N 40°39' W 074°12'0 0.0
2017-Oct-14 10:00N 40°39' W 074°12'0 0.0
2017-Oct-14 09:30N 40°39' W 074°12'0 0.0
2017-Oct-14 09:00N 40°39' W 074°12'0 0.0
2017-Oct-14 08:30N 40°39' W 074°12'0 0.0
2017-Oct-14 08:00N 40°39' W 074°12'0 0.0
2017-Oct-14 07:30N 40°39' W 074°12'0 0.0
2017-Oct-14 07:00N 40°39' W 074°12'0 0.0
2017-Oct-14 06:30N 40°39' W 074°12'0 0.0
2017-Oct-14 06:00N 40°39' W 074°12'0 0.0
2017-Oct-14 05:30N 40°39' W 074°12'0 0.0
2017-Oct-14 05:00N 40°39' W 074°12'0 0.0
2017-Oct-14 04:29N 40°39' W 074°12'0 0.0
2017-Oct-14 04:00N 40°39' W 074°12'0 0.0
2017-Oct-14 03:30N 40°39' W 074°12'0 0.0
2017-Oct-14 03:00N 40°39' W 074°12'0 0.0
2017-Oct-14 02:30N 40°39' W 074°12'0 0.0
2017-Oct-14 02:00N 40°39' W 074°12'0 0.0
2017-Oct-14 01:30N 40°39' W 074°12'0 0.0
2017-Oct-14 01:00N 40°39' W 074°12'0 0.0
2017-Oct-14 00:30N 40°39' W 074°12'0 0.0
2017-Oct-14 00:00N 40°39' W 074°12'0 0.0
2017-Oct-13 23:30N 40°39' W 074°12'0 0.0
2017-Oct-13 23:00N 40°39' W 074°12'0 0.0
2017-Oct-13 22:30N 40°39' W 074°12'0 0.0
2017-Oct-13 22:00N 40°39' W 074°12'0 0.0
2017-Oct-13 21:30N 40°39' W 074°12'0 0.0
2017-Oct-13 21:00N 40°39' W 074°12'0 0.0
2017-Oct-13 20:29N 40°39' W 074°12'0 0.0
2017-Oct-13 20:00N 40°39' W 074°12'0 0.0
2017-Oct-13 19:30N 40°39' W 074°12'0 0.2
2017-Oct-13 19:00N 40°38' W 074°12'0 0.1
2017-Oct-13 18:30N 40°38' W 074°12'0 0.1
2017-Oct-13 17:59N 40°38' W 074°12'0 0.0
2017-Oct-13 17:30N 40°38' W 074°12'0 0.0
2017-Oct-13 17:00N 40°38' W 074°12'0 0.0
2017-Oct-13 16:30N 40°38' W 074°12'0 0.0
2017-Oct-13 16:00N 40°38' W 074°12'0 0.0
2017-Oct-13 15:29N 40°38' W 074°12'0 0.0
2017-Oct-13 15:00N 40°38' W 074°12'0 0.0
2017-Oct-13 14:30N 40°38' W 074°12'0 0.0
2017-Oct-13 14:00N 40°38' W 074°12'0 0.0
2017-Oct-13 13:30N 40°38' W 074°12'0 0.0
2017-Oct-13 13:00N 40°38' W 074°12'0 0.0
2017-Oct-13 12:30N 40°38' W 074°12'0 0.0
2017-Oct-13 12:00N 40°39' W 074°12'0 0.0
2017-Oct-13 11:30N 40°38' W 074°12'0 0.0
2017-Oct-13 10:30N 40°39' W 074°12'0 0.0
2017-Oct-13 10:00N 40°39' W 074°12'0 0.0
2017-Oct-13 09:30N 40°39' W 074°12'0 0.0
2017-Oct-13 09:00N 40°39' W 074°12'0 0.0
2017-Oct-13 08:30N 40°39' W 074°12'0 0.0
2017-Oct-13 08:00N 40°39' W 074°12'0 0.0
2017-Oct-13 07:30N 40°39' W 074°12'0 0.0
2017-Oct-13 07:00N 40°39' W 074°12'0 0.0
2017-Oct-13 06:30N 40°39' W 074°12'0 0.0
2017-Oct-13 06:00N 40°39' W 074°12'0 0.0
2017-Oct-13 05:30N 40°39' W 074°12'0 0.0
2017-Oct-13 05:00N 40°39' W 074°12'0 0.0
2017-Oct-13 04:30N 40°39' W 074°12'0 0.0
2017-Oct-13 04:00N 40°39' W 074°12'0 0.0
2017-Oct-13 03:30N 40°39' W 074°12'0 0.0
2017-Oct-13 03:00N 40°39' W 074°12'0 0.0
2017-Oct-13 02:30N 40°39' W 074°12'0 0.0
2017-Oct-13 02:00N 40°39' W 074°12'0 0.0
2017-Oct-13 01:30N 40°39' W 074°12'0 0.0
2017-Oct-13 01:00N 40°39' W 074°12'0 0.0
2017-Oct-13 00:30N 40°39' W 074°12'0 0.0
2017-Oct-13 00:00N 40°39' W 074°12'0 0.0
2017-Oct-12 23:30N 40°39' W 074°12'0 0.0
2017-Oct-12 23:00N 40°39' W 074°12'0 0.0
2017-Oct-12 22:30N 40°39' W 074°12'0 0.0
2017-Oct-12 22:00N 40°39' W 074°12'0 0.0
2017-Oct-12 21:30N 40°39' W 074°12'0 0.0
2017-Oct-12 21:00N 40°39' W 074°12'0 0.0
2017-Oct-12 20:30N 40°39' W 074°12'0 0.0
2017-Oct-12 20:00N 40°39' W 074°12'0 0.0
2017-Oct-12 19:30N 40°39' W 074°12'0 0.0
2017-Oct-12 18:59N 40°39' W 074°12'0 0.0
2017-Oct-12 18:30N 40°39' W 074°12'0 0.0
2017-Oct-12 18:00N 40°39' W 074°12'0 0.0
2017-Oct-12 17:30N 40°39' W 074°12'0 0.0
2017-Oct-12 17:00N 40°39' W 074°12'0 0.0
2017-Oct-12 16:30N 40°39' W 074°12'0 0.1
2017-Oct-12 16:00N 40°38' W 074°12'0 0.1
2017-Oct-12 15:30N 40°39' W 074°12'0 0.0
2017-Oct-12 14:59N 40°39' W 074°12'0 0.0
2017-Oct-12 14:30N 40°39' W 074°12'0 0.0
2017-Oct-12 14:00N 40°39' W 074°12'0 0.0
2017-Oct-12 13:30N 40°39' W 074°12'0 0.0
2017-Oct-12 13:00N 40°39' W 074°12'0 0.0
2017-Oct-12 12:30N 40°39' W 074°12'0 0.0
2017-Oct-12 12:00N 40°39' W 074°12'0 0.0
2017-Oct-12 11:30N 40°39' W 074°12'0 0.0
2017-Oct-12 11:00N 40°39' W 074°12'0 0.0
2017-Oct-12 10:30N 40°39' W 074°12'0 0.0
2017-Oct-12 10:00N 40°39' W 074°12'0 0.0
2017-Oct-12 09:30N 40°39' W 074°12'0 0.0
2017-Oct-12 09:00N 40°39' W 074°12'0 0.0
2017-Oct-12 08:30N 40°39' W 074°12'0 0.0
2017-Oct-12 08:00N 40°39' W 074°12'0 0.0
2017-Oct-12 07:30N 40°39' W 074°12'0 0.0
2017-Oct-12 07:00N 40°39' W 074°12'0 0.0
2017-Oct-12 06:30N 40°39' W 074°12'0 0.0
2017-Oct-12 06:00N 40°39' W 074°12'0 0.0
2017-Oct-12 05:30N 40°39' W 074°12'0 0.0
2017-Oct-12 05:00N 40°39' W 074°12'0 0.0
2017-Oct-12 04:30N 40°39' W 074°12'0 0.0
2017-Oct-12 04:00N 40°39' W 074°12'0 0.0
2017-Oct-12 03:30N 40°39' W 074°12'0 0.0
2017-Oct-12 03:00N 40°39' W 074°12'0 0.0
2017-Oct-12 02:30N 40°39' W 074°12'0 0.0
2017-Oct-12 02:00N 40°39' W 074°12'0 0.0
2017-Oct-12 01:30N 40°39' W 074°12'0 0.0
2017-Oct-12 01:00N 40°39' W 074°12'0 0.0
2017-Oct-12 00:30N 40°39' W 074°12'0 0.0
2017-Oct-12 00:00N 40°39' W 074°12'0 0.0
2017-Oct-11 23:30N 40°39' W 074°12'0 0.0
2017-Oct-11 23:00N 40°39' W 074°12'0 0.0
2017-Oct-11 22:29N 40°39' W 074°12'0 0.0
2017-Oct-11 22:00N 40°39' W 074°12'0 0.0
2017-Oct-11 21:30N 40°39' W 074°12'0 0.0
2017-Oct-11 20:59N 40°39' W 074°12'0 0.0
2017-Oct-11 20:30N 40°39' W 074°12'0 0.0
2017-Oct-11 20:00N 40°39' W 074°12'0 0.0
2017-Oct-11 19:30N 40°39' W 074°12'0 0.0
2017-Oct-11 19:00N 40°39' W 074°12'0 0.0
2017-Oct-11 18:30N 40°39' W 074°12'0 0.0
2017-Oct-11 18:00N 40°39' W 074°12'0 0.0
2017-Oct-11 17:30N 40°39' W 074°12'0 0.0
2017-Oct-11 17:00N 40°39' W 074°12'0 0.0
2017-Oct-11 00:00N 40°39' W 074°12'0 0.0
2017-Oct-10 23:29N 40°39' W 074°12'0 0.0
2017-Oct-10 23:00N 40°39' W 074°12'0 0.0
2017-Oct-10 22:23N 40°39' W 074°12'0 0.0
2017-Oct-10 22:00N 40°39' W 074°12'0 0.0
2017-Oct-10 21:30N 40°39' W 074°12'0 0.0
2017-Oct-10 21:00N 40°39' W 074°12'0 0.0
2017-Oct-10 20:28N 40°39' W 074°12'0 0.0
2017-Oct-10 20:00N 40°39' W 074°12'0 0.0
2017-Oct-10 19:30N 40°39' W 074°12'0 0.0
2017-Oct-10 19:00N 40°39' W 074°12'0 0.0
2017-Oct-10 18:30N 40°39' W 074°12'0 0.0
2017-Oct-10 18:00N 40°39' W 074°12'0 0.0
2017-Oct-10 17:30N 40°39' W 074°12'0 0.0
2017-Oct-10 17:00N 40°39' W 074°12'0 0.0
2017-Oct-10 16:30N 40°39' W 074°12'0 0.0
2017-Oct-10 16:00N 40°39' W 074°12'0 0.0
2017-Oct-10 15:30N 40°39' W 074°12'0 0.0
2017-Oct-10 15:00N 40°39' W 074°12'0 0.0
2017-Oct-10 14:00N 40°39' W 074°12'0 0.0
2017-Oct-10 13:30N 40°39' W 074°12'0 0.0
2017-Oct-10 13:00N 40°39' W 074°12'0 0.0
2017-Oct-10 12:30N 40°39' W 074°12'0 0.0
2017-Oct-10 12:00N 40°39' W 074°12'0 0.0
2017-Oct-10 11:30N 40°39' W 074°12'0 0.0
2017-Oct-10 11:00N 40°39' W 074°12'0 0.0
2017-Oct-10 10:30N 40°39' W 074°12'0 0.0
2017-Oct-10 10:00N 40°39' W 074°12'0 0.0
2017-Oct-10 09:30N 40°39' W 074°12'0 0.0
2017-Oct-10 09:00N 40°39' W 074°12'0 0.0
2017-Oct-10 08:30N 40°39' W 074°12'0 0.0
2017-Oct-10 08:00N 40°39' W 074°12'0 0.0
2017-Oct-10 07:29N 40°39' W 074°12'0 0.0
2017-Oct-10 07:00N 40°39' W 074°12'0 0.0
2017-Oct-10 06:30N 40°39' W 074°12'0 0.0
2017-Oct-10 06:00N 40°39' W 074°12'0 0.0
2017-Oct-10 05:30N 40°39' W 074°12'0 0.0
2017-Oct-10 05:00N 40°39' W 074°12'0 0.0
2017-Oct-10 04:30N 40°39' W 074°12'0 0.0
2017-Oct-10 04:00N 40°39' W 074°12'0 0.0
2017-Oct-10 03:30N 40°39' W 074°12'0 0.0
2017-Oct-10 03:00N 40°39' W 074°12'0 0.0
2017-Oct-10 02:30N 40°39' W 074°12'0 0.0
2017-Oct-10 02:00N 40°39' W 074°12'0 0.0
2017-Oct-10 01:29N 40°39' W 074°12'0 0.0
2017-Oct-10 01:00N 40°39' W 074°12'0 0.0
2017-Oct-10 00:30N 40°39' W 074°12'0 0.0
2017-Oct-09 23:59N 40°39' W 074°12'0 0.0
2017-Oct-09 22:47N 40°39' W 074°12'0 0.0
2017-Oct-09 22:26N 40°39' W 074°12'0 0.0
2017-Oct-09 22:00N 40°39' W 074°12'0 0.0
2017-Oct-09 21:30N 40°39' W 074°12'0 0.0
2017-Oct-09 21:00N 40°39' W 074°12'0 0.0
2017-Oct-09 20:30N 40°39' W 074°12'0 0.0
2017-Oct-09 20:00N 40°39' W 074°12'0 0.0
2017-Oct-09 19:30N 40°39' W 074°12'0 0.0
2017-Oct-09 19:00N 40°39' W 074°12'0 0.0
2017-Oct-09 18:30N 40°39' W 074°12'0 0.0
2017-Oct-09 18:00N 40°39' W 074°12'0 0.0
2017-Oct-09 17:30N 40°39' W 074°12'0 0.0
2017-Oct-09 17:00N 40°39' W 074°12'0 0.0
2017-Oct-09 16:30N 40°39' W 074°12'0 0.0
2017-Oct-09 16:00N 40°39' W 074°12'0 0.0
2017-Oct-09 15:30N 40°39' W 074°12'0 0.0
2017-Oct-09 15:00N 40°39' W 074°12'0 0.0
2017-Oct-09 14:30N 40°39' W 074°12'0 0.0
2017-Oct-09 14:00N 40°39' W 074°12'0 0.0
2017-Oct-09 13:30N 40°39' W 074°12'0 0.0
2017-Oct-09 13:00N 40°39' W 074°12'0 0.0
2017-Oct-09 12:30N 40°39' W 074°12'0 0.0
2017-Oct-09 12:00N 40°39' W 074°12'0 0.0
2017-Oct-09 11:30N 40°39' W 074°12'0 0.0
2017-Oct-09 10:59N 40°39' W 074°12'0 0.0
2017-Oct-09 10:30N 40°39' W 074°12'0 0.0
2017-Oct-09 10:00N 40°39' W 074°12'0 0.0
2017-Oct-09 09:30N 40°39' W 074°12'0 0.0
2017-Oct-09 09:00N 40°39' W 074°12'0 0.0
2017-Oct-09 08:30N 40°39' W 074°12'0 0.0
2017-Oct-09 08:00N 40°39' W 074°12'0 0.0
2017-Oct-09 07:30N 40°39' W 074°12'0 0.0
2017-Oct-09 07:00N 40°39' W 074°12'0 0.0
2017-Oct-09 06:30N 40°39' W 074°12'0 0.0
2017-Oct-09 06:00N 40°39' W 074°12'0 0.0
2017-Oct-09 05:30N 40°39' W 074°12'0 0.0
2017-Oct-09 05:00N 40°39' W 074°12'0 0.0
2017-Oct-09 04:30N 40°39' W 074°12'0 0.0
2017-Oct-09 04:00N 40°39' W 074°12'0 0.0
2017-Oct-09 03:30N 40°39' W 074°12'0 0.0
2017-Oct-09 03:00N 40°39' W 074°12'0 0.0
2017-Oct-09 02:30N 40°39' W 074°12'0 0.0
2017-Oct-09 02:00N 40°39' W 074°12'0 0.0
2017-Oct-09 01:30N 40°39' W 074°12'0 0.0
2017-Oct-09 01:00N 40°39' W 074°12'0 0.0
2017-Oct-09 00:30N 40°39' W 074°12'0 0.0
2017-Oct-09 00:00N 40°39' W 074°12'0 0.0
2017-Oct-08 23:30N 40°39' W 074°12'0 0.0
2017-Oct-08 23:00N 40°39' W 074°12'  

Dump ship's entire track history